sensor_id;sensor_type;location;lat;lon;timestamp;P1;P4;P2;P0;N10;N4;N25;N1;N05;TS
79466;SPS30;68933;49.726;9.226;2023-10-19T00:01:59;8.5;;8.5;8.1;;;;;;
79466;SPS30;68933;49.726;9.226;2023-10-19T00:04:12;9.5;;9.5;9;;;;;;
79466;SPS30;68933;49.726;9.226;2023-10-19T00:06:25;9.5;;9.5;9;;;;;;
79466;SPS30;68933;49.726;9.226;2023-10-19T00:08:38;9.2;;9.2;8.8;;;;;;
79466;SPS30;68933;49.726;9.226;2023-10-19T00:10:51;9.2;;9.2;8.8;;;;;;
79466;SPS30;68933;49.726;9.226;2023-10-19T00:13:04;8.3;;8.3;7.9;;;;;;
79466;SPS30;68933;49.726;9.226;2023-10-19T00:15:17;8.3;;8.3;7.9;;;;;;
79466;SPS30;68933;49.726;9.226;2023-10-19T00:17:30;8.3;;8.3;7.9;;;;;;
79466;SPS30;68933;49.726;9.226;2023-10-19T00:19:43;8.4;;8.4;8;;;;;;
79466;SPS30;68933;49.726;9.226;2023-10-19T00:21:56;8.4;;8.4;8;;;;;;
79466;SPS30;68933;49.726;9.226;2023-10-19T00:24:09;9.4;;9.4;9;;;;;;
79466;SPS30;68933;49.726;9.226;2023-10-19T00:26:22;9.4;;9.4;9;;;;;;
79466;SPS30;68933;49.726;9.226;2023-10-19T00:28:35;9.7;;9.7;9.3;;;;;;
79466;SPS30;68933;49.726;9.226;2023-10-19T00:30:48;9.7;;9.7;9.3;;;;;;
79466;SPS30;68933;49.726;9.226;2023-10-19T00:33:01;9.7;;9.7;9.3;;;;;;
79466;SPS30;68933;49.726;9.226;2023-10-19T00:35:14;9.7;;9.7;9.3;;;;;;
79466;SPS30;68933;49.726;9.226;2023-10-19T00:37:27;12.6;;12.6;12;;;;;;
79466;SPS30;68933;49.726;9.226;2023-10-19T00:39:40;12.6;;12.6;12;;;;;;
79466;SPS30;68933;49.726;9.226;2023-10-19T00:41:53;12;;11.9;11.4;;;;;;
79466;SPS30;68933;49.726;9.226;2023-10-19T00:44:06;12;;11.9;11.4;;;;;;
79466;SPS30;68933;49.726;9.226;2023-10-19T00:46:19;12;;11.9;11.4;;;;;;
79466;SPS30;68933;49.726;9.226;2023-10-19T00:48:32;12.3;;12.3;11.7;;;;;;
79466;SPS30;68933;49.726;9.226;2023-10-19T00:50:45;12.3;;12.3;11.7;;;;;;
79466;SPS30;68933;49.726;9.226;2023-10-19T00:52:58;12;;12;11.4;;;;;;
79466;SPS30;68933;49.726;9.226;2023-10-19T00:55:11;12;;12;11.4;;;;;;
79466;SPS30;68933;49.726;9.226;2023-10-19T00:57:24;9.5;;9.5;9;;;;;;
79466;SPS30;68933;49.726;9.226;2023-10-19T00:59:37;9.5;;9.5;9;;;;;;
79466;SPS30;68933;49.726;9.226;2023-10-19T01:01:50;8.9;;8.9;8.4;;;;;;
79466;SPS30;68933;49.726;9.226;2023-10-19T01:04:03;8.9;;8.9;8.4;;;;;;
79466;SPS30;68933;49.726;9.226;2023-10-19T01:06:16;8.9;;8.9;8.4;;;;;;
79466;SPS30;68933;49.726;9.226;2023-10-19T01:08:29;10.8;;10.8;10.3;;;;;;
79466;SPS30;68933;49.726;9.226;2023-10-19T01:10:42;10.8;;10.8;10.3;;;;;;
79466;SPS30;68933;49.726;9.226;2023-10-19T01:12:55;12;;12;11.4;;;;;;
79466;SPS30;68933;49.726;9.226;2023-10-19T01:15:08;12;;12;11.4;;;;;;
79466;SPS30;68933;49.726;9.226;2023-10-19T01:17:21;12;;12;11.4;;;;;;
79466;SPS30;68933;49.726;9.226;2023-10-19T01:19:34;8.9;;8.9;8.4;;;;;;
79466;SPS30;68933;49.726;9.226;2023-10-19T01:21:47;8.9;;8.9;8.4;;;;;;
79466;SPS30;68933;49.726;9.226;2023-10-19T01:24:00;9.3;;9.3;8.9;;;;;;
79466;SPS30;68933;49.726;9.226;2023-10-19T01:26:13;9.3;;9.3;8.9;;;;;;
79466;SPS30;68933;49.726;9.226;2023-10-19T01:28:27;9.3;;9.3;8.9;;;;;;
79466;SPS30;68933;49.726;9.226;2023-10-19T01:30:39;8.1;;8.1;7.7;;;;;;
79466;SPS30;68933;49.726;9.226;2023-10-19T01:32:52;8.1;;8.1;7.7;;;;;;
79466;SPS30;68933;49.726;9.226;2023-10-19T01:35:05;7.9;;7.9;7.5;;;;;;
79466;SPS30;68933;49.726;9.226;2023-10-19T01:37:18;7.9;;7.9;7.5;;;;;;
79466;SPS30;68933;49.726;9.226;2023-10-19T01:39:31;7.9;;7.9;7.5;;;;;;
79466;SPS30;68933;49.726;9.226;2023-10-19T01:41:44;9.9;;9.8;9.2;;;;;;
79466;SPS30;68933;49.726;9.226;2023-10-19T01:43:57;9.9;;9.8;9.2;;;;;;
79466;SPS30;68933;49.726;9.226;2023-10-19T01:46:10;9.5;;9.5;9.1;;;;;;
79466;SPS30;68933;49.726;9.226;2023-10-19T01:48:23;9.5;;9.5;9.1;;;;;;
79466;SPS30;68933;49.726;9.226;2023-10-19T01:50:36;9.7;;9.7;9.3;;;;;;
79466;SPS30;68933;49.726;9.226;2023-10-19T01:52:49;9.7;;9.7;9.3;;;;;;
79466;SPS30;68933;49.726;9.226;2023-10-19T01:55:02;9.7;;9.7;9.3;;;;;;
79466;SPS30;68933;49.726;9.226;2023-10-19T01:57:15;13.8;;13.8;13.1;;;;;;
79466;SPS30;68933;49.726;9.226;2023-10-19T01:59:28;13.8;;13.8;13.1;;;;;;
79466;SPS30;68933;49.726;9.226;2023-10-19T02:01:41;10.1;;10;9.5;;;;;;
79466;SPS30;68933;49.726;9.226;2023-10-19T02:03:54;10.1;;10;9.5;;;;;;
79466;SPS30;68933;49.726;9.226;2023-10-19T02:06:07;9.9;;9.9;9.4;;;;;;
79466;SPS30;68933;49.726;9.226;2023-10-19T02:08:20;9.9;;9.9;9.4;;;;;;
79466;SPS30;68933;49.726;9.226;2023-10-19T02:10:33;9.9;;9.9;9.4;;;;;;
79466;SPS30;68933;49.726;9.226;2023-10-19T02:12:46;10.6;;10.6;10.1;;;;;;
79466;SPS30;68933;49.726;9.226;2023-10-19T02:14:59;10.6;;10.6;10.1;;;;;;
79466;SPS30;68933;49.726;9.226;2023-10-19T02:17:12;9.4;;9.4;9;;;;;;
79466;SPS30;68933;49.726;9.226;2023-10-19T02:19:25;9.4;;9.4;9;;;;;;
79466;SPS30;68933;49.726;9.226;2023-10-19T02:21:38;9.1;;9.1;8.7;;;;;;
79466;SPS30;68933;49.726;9.226;2023-10-19T02:23:51;9.1;;9.1;8.7;;;;;;
79466;SPS30;68933;49.726;9.226;2023-10-19T02:26:04;9.1;;9.1;8.7;;;;;;
79466;SPS30;68933;49.726;9.226;2023-10-19T02:28:17;8.9;;8.9;8.4;;;;;;
79466;SPS30;68933;49.726;9.226;2023-10-19T02:30:30;8.9;;8.9;8.4;;;;;;
79466;SPS30;68933;49.726;9.226;2023-10-19T02:32:43;9.4;;9.4;9;;;;;;
79466;SPS30;68933;49.726;9.226;2023-10-19T02:34:56;9.4;;9.4;9;;;;;;
79466;SPS30;68933;49.726;9.226;2023-10-19T02:37:09;8.5;;8.5;8.1;;;;;;
79466;SPS30;68933;49.726;9.226;2023-10-19T02:39:22;8.5;;8.5;8.1;;;;;;
79466;SPS30;68933;49.726;9.226;2023-10-19T02:41:35;8.5;;8.5;8.1;;;;;;
79466;SPS30;68933;49.726;9.226;2023-10-19T02:43:48;8.9;;8.9;8.5;;;;;;
79466;SPS30;68933;49.726;9.226;2023-10-19T02:46:01;8.9;;8.9;8.5;;;;;;
79466;SPS30;68933;49.726;9.226;2023-10-19T02:48:14;8.9;;8.9;8.5;;;;;;
79466;SPS30;68933;49.726;9.226;2023-10-19T02:50:27;8.9;;8.9;8.5;;;;;;
79466;SPS30;68933;49.726;9.226;2023-10-19T02:52:40;9.6;;9.6;9.1;;;;;;
79466;SPS30;68933;49.726;9.226;2023-10-19T02:54:53;9.6;;9.6;9.1;;;;;;
79466;SPS30;68933;49.726;9.226;2023-10-19T02:57:06;9.6;;9.6;9.1;;;;;;
79466;SPS30;68933;49.726;9.226;2023-10-19T02:59:19;9.8;;9.8;9.4;;;;;;
79466;SPS30;68933;49.726;9.226;2023-10-19T03:01:32;9.8;;9.8;9.4;;;;;;
79466;SPS30;68933;49.726;9.226;2023-10-19T03:03:45;8.7;;8.7;8.3;;;;;;
79466;SPS30;68933;49.726;9.226;2023-10-19T03:05:58;8.7;;8.7;8.3;;;;;;
79466;SPS30;68933;49.726;9.226;2023-10-19T03:08:11;9.8;;9.8;9.3;;;;;;
79466;SPS30;68933;49.726;9.226;2023-10-19T03:10:24;9.8;;9.8;9.3;;;;;;
79466;SPS30;68933;49.726;9.226;2023-10-19T03:12:37;9.5;;9.5;9.1;;;;;;
79466;SPS30;68933;49.726;9.226;2023-10-19T03:14:50;9.5;;9.5;9.1;;;;;;
79466;SPS30;68933;49.726;9.226;2023-10-19T03:17:03;9.5;;9.5;9.1;;;;;;
79466;SPS30;68933;49.726;9.226;2023-10-19T03:19:16;9.6;;9.6;9.2;;;;;;
79466;SPS30;68933;49.726;9.226;2023-10-19T03:21:29;9.6;;9.6;9.2;;;;;;
79466;SPS30;68933;49.726;9.226;2023-10-19T03:23:42;9.4;;9.4;8.9;;;;;;
79466;SPS30;68933;49.726;9.226;2023-10-19T03:25:55;9.4;;9.4;8.9;;;;;;
79466;SPS30;68933;49.726;9.226;2023-10-19T03:28:08;9.4;;9.4;8.9;;;;;;
79466;SPS30;68933;49.726;9.226;2023-10-19T03:30:21;9.4;;9.4;8.9;;;;;;
79466;SPS30;68933;49.726;9.226;2023-10-19T03:32:34;9.1;;9.1;8.7;;;;;;
79466;SPS30;68933;49.726;9.226;2023-10-19T03:34:47;9.1;;9.1;8.7;;;;;;
79466;SPS30;68933;49.726;9.226;2023-10-19T03:37:00;9.1;;9.1;8.7;;;;;;
79466;SPS30;68933;49.726;9.226;2023-10-19T03:39:13;10.1;;10.1;9.6;;;;;;
79466;SPS30;68933;49.726;9.226;2023-10-19T03:41:26;10.1;;10.1;9.6;;;;;;
79466;SPS30;68933;49.726;9.226;2023-10-19T03:43:39;7.9;;7.9;7.5;;;;;;
79466;SPS30;68933;49.726;9.226;2023-10-19T03:45:52;7.9;;7.9;7.5;;;;;;
79466;SPS30;68933;49.726;9.226;2023-10-19T03:48:05;9;;9;8.6;;;;;;
79466;SPS30;68933;49.726;9.226;2023-10-19T03:50:18;9;;9;8.6;;;;;;
79466;SPS30;68933;49.726;9.226;2023-10-19T03:52:31;9.9;;9.9;9.4;;;;;;
79466;SPS30;68933;49.726;9.226;2023-10-19T03:54:44;9.9;;9.9;9.4;;;;;;
79466;SPS30;68933;49.726;9.226;2023-10-19T03:56:57;10;;10;9.5;;;;;;
79466;SPS30;68933;49.726;9.226;2023-10-19T03:59:10;10;;10;9.5;;;;;;
79466;SPS30;68933;49.726;9.226;2023-10-19T04:01:23;10.1;;10.1;9.6;;;;;;
79466;SPS30;68933;49.726;9.226;2023-10-19T04:03:36;10.1;;10.1;9.6;;;;;;
79466;SPS30;68933;49.726;9.226;2023-10-19T04:05:49;10.1;;10.1;9.6;;;;;;
79466;SPS30;68933;49.726;9.226;2023-10-19T04:08:02;9.8;;9.8;9.3;;;;;;
79466;SPS30;68933;49.726;9.226;2023-10-19T04:10:15;9.8;;9.8;9.3;;;;;;
79466;SPS30;68933;49.726;9.226;2023-10-19T04:12:28;9.9;;9.9;9.4;;;;;;
79466;SPS30;68933;49.726;9.226;2023-10-19T04:14:41;9.9;;9.9;9.4;;;;;;
79466;SPS30;68933;49.726;9.226;2023-10-19T04:16:54;9.9;;9.9;9.4;;;;;;
79466;SPS30;68933;49.726;9.226;2023-10-19T04:19:07;9.3;;9.3;8.9;;;;;;
79466;SPS30;68933;49.726;9.226;2023-10-19T04:21:20;9.3;;9.3;8.9;;;;;;
79466;SPS30;68933;49.726;9.226;2023-10-19T04:23:33;13.1;;13.1;12.5;;;;;;
79466;SPS30;68933;49.726;9.226;2023-10-19T04:25:46;13.1;;13.1;12.5;;;;;;
79466;SPS30;68933;49.726;9.226;2023-10-19T04:27:59;13.1;;13.1;12.5;;;;;;
79466;SPS30;68933;49.726;9.226;2023-10-19T04:30:12;10.8;;10.8;10.3;;;;;;
79466;SPS30;68933;49.726;9.226;2023-10-19T04:32:25;10.8;;10.8;10.3;;;;;;
79466;SPS30;68933;49.726;9.226;2023-10-19T04:34:38;12.3;;12.3;11.7;;;;;;
79466;SPS30;68933;49.726;9.226;2023-10-19T04:36:51;12.3;;12.3;11.7;;;;;;
79466;SPS30;68933;49.726;9.226;2023-10-19T04:39:04;12.3;;12.3;11.7;;;;;;
79466;SPS30;68933;49.726;9.226;2023-10-19T04:41:17;12.6;;12.6;12;;;;;;
79466;SPS30;68933;49.726;9.226;2023-10-19T04:43:30;12.6;;12.6;12;;;;;;
79466;SPS30;68933;49.726;9.226;2023-10-19T04:45:43;11.7;;11.7;11.1;;;;;;
79466;SPS30;68933;49.726;9.226;2023-10-19T04:47:56;11.7;;11.7;11.1;;;;;;
79466;SPS30;68933;49.726;9.226;2023-10-19T04:50:09;11.7;;11.7;11.1;;;;;;
79466;SPS30;68933;49.726;9.226;2023-10-19T04:52:22;12.5;;12.5;11.9;;;;;;
79466;SPS30;68933;49.726;9.226;2023-10-19T04:54:35;12.5;;12.5;11.9;;;;;;
79466;SPS30;68933;49.726;9.226;2023-10-19T04:56:48;13.2;;13.2;12.5;;;;;;
79466;SPS30;68933;49.726;9.226;2023-10-19T04:59:01;13.2;;13.2;12.5;;;;;;
79466;SPS30;68933;49.726;9.226;2023-10-19T05:01:14;22.2;;21.6;20;;;;;;
79466;SPS30;68933;49.726;9.226;2023-10-19T05:03:27;22.2;;21.6;20;;;;;;
79466;SPS30;68933;49.726;9.226;2023-10-19T05:05:40;22.2;;21.6;20;;;;;;
79466;SPS30;68933;49.726;9.226;2023-10-19T05:07:53;15.8;;15.8;15;;;;;;
79466;SPS30;68933;49.726;9.226;2023-10-19T05:10:06;15.8;;15.8;15;;;;;;
79466;SPS30;68933;49.726;9.226;2023-10-19T05:12:19;14;;13.9;13.3;;;;;;
79466;SPS30;68933;49.726;9.226;2023-10-19T05:14:32;14;;13.9;13.3;;;;;;
79466;SPS30;68933;49.726;9.226;2023-10-19T05:16:45;11;;11;10.5;;;;;;
79466;SPS30;68933;49.726;9.226;2023-10-19T05:18:58;11;;11;10.5;;;;;;
79466;SPS30;68933;49.726;9.226;2023-10-19T05:21:11;11;;11;10.5;;;;;;
79466;SPS30;68933;49.726;9.226;2023-10-19T05:23:24;10.6;;10.6;10.1;;;;;;
79466;SPS30;68933;49.726;9.226;2023-10-19T05:25:37;10.6;;10.6;10.1;;;;;;
79466;SPS30;68933;49.726;9.226;2023-10-19T05:27:50;10.6;;10.6;10.1;;;;;;
79466;SPS30;68933;49.726;9.226;2023-10-19T05:30:03;10.6;;10.6;10.1;;;;;;
79466;SPS30;68933;49.726;9.226;2023-10-19T05:32:16;10.9;;10.9;10.3;;;;;;
79466;SPS30;68933;49.726;9.226;2023-10-19T05:34:29;10.9;;10.9;10.3;;;;;;
79466;SPS30;68933;49.726;9.226;2023-10-19T05:36:42;10.9;;10.9;10.3;;;;;;
79466;SPS30;68933;49.726;9.226;2023-10-19T05:38:55;12.9;;12.9;12.3;;;;;;
79466;SPS30;68933;49.726;9.226;2023-10-19T05:41:08;12.9;;12.9;12.3;;;;;;
79466;SPS30;68933;49.726;9.226;2023-10-19T05:43:21;12.1;;12.1;11.5;;;;;;
79466;SPS30;68933;49.726;9.226;2023-10-19T05:45:34;12.1;;12.1;11.5;;;;;;
79466;SPS30;68933;49.726;9.226;2023-10-19T05:47:47;16;;15.6;14.5;;;;;;
79466;SPS30;68933;49.726;9.226;2023-10-19T05:50:00;16;;15.6;14.5;;;;;;
79466;SPS30;68933;49.726;9.226;2023-10-19T05:52:13;16;;15.6;14.5;;;;;;
79466;SPS30;68933;49.726;9.226;2023-10-19T05:54:26;22.6;;21.8;20.1;;;;;;
79466;SPS30;68933;49.726;9.226;2023-10-19T05:56:39;22.6;;21.8;20.1;;;;;;
79466;SPS30;68933;49.726;9.226;2023-10-19T05:58:52;16.3;;16.1;15.2;;;;;;
79466;SPS30;68933;49.726;9.226;2023-10-19T06:01:05;16.3;;16.1;15.2;;;;;;
79466;SPS30;68933;49.726;9.226;2023-10-19T06:03:18;13.2;;13.2;12.6;;;;;;
79466;SPS30;68933;49.726;9.226;2023-10-19T06:05:31;13.2;;13.2;12.6;;;;;;
79466;SPS30;68933;49.726;9.226;2023-10-19T06:07:44;13.2;;13.2;12.6;;;;;;
79466;SPS30;68933;49.726;9.226;2023-10-19T06:09:57;12.8;;12.7;12;;;;;;
79466;SPS30;68933;49.726;9.226;2023-10-19T06:12:10;12.8;;12.7;12;;;;;;
79466;SPS30;68933;49.726;9.226;2023-10-19T06:14:23;13.4;;13.2;12.5;;;;;;
79466;SPS30;68933;49.726;9.226;2023-10-19T06:16:36;13.4;;13.2;12.5;;;;;;
79466;SPS30;68933;49.726;9.226;2023-10-19T06:18:49;13.7;;13.7;13;;;;;;
79466;SPS30;68933;49.726;9.226;2023-10-19T06:21:02;13.7;;13.7;13;;;;;;
79466;SPS30;68933;49.726;9.226;2023-10-19T06:23:15;13.7;;13.7;13;;;;;;
79466;SPS30;68933;49.726;9.226;2023-10-19T06:25:28;12.6;;12.6;11.9;;;;;;
79466;SPS30;68933;49.726;9.226;2023-10-19T06:27:41;12.6;;12.6;11.9;;;;;;
79466;SPS30;68933;49.726;9.226;2023-10-19T06:29:54;13.5;;13.5;12.9;;;;;;
79466;SPS30;68933;49.726;9.226;2023-10-19T06:32:07;13.5;;13.5;12.9;;;;;;
79466;SPS30;68933;49.726;9.226;2023-10-19T06:34:20;13.7;;13.7;13;;;;;;
79466;SPS30;68933;49.726;9.226;2023-10-19T06:36:33;13.7;;13.7;13;;;;;;
79466;SPS30;68933;49.726;9.226;2023-10-19T06:38:46;15.9;;15.6;14.7;;;;;;
79466;SPS30;68933;49.726;9.226;2023-10-19T06:40:59;15.9;;15.6;14.7;;;;;;
79466;SPS30;68933;49.726;9.226;2023-10-19T06:43:12;13.9;;13.8;13;;;;;;
79466;SPS30;68933;49.726;9.226;2023-10-19T06:45:25;13.9;;13.8;13;;;;;;
79466;SPS30;68933;49.726;9.226;2023-10-19T06:47:38;13.7;;13.7;13.1;;;;;;
79466;SPS30;68933;49.726;9.226;2023-10-19T06:49:51;13.7;;13.7;13.1;;;;;;
79466;SPS30;68933;49.726;9.226;2023-10-19T06:52:04;13.7;;13.7;13.1;;;;;;
79466;SPS30;68933;49.726;9.226;2023-10-19T06:54:17;15.4;;15.4;14.7;;;;;;
79466;SPS30;68933;49.726;9.226;2023-10-19T06:56:30;15.4;;15.4;14.7;;;;;;
79466;SPS30;68933;49.726;9.226;2023-10-19T06:58:43;14.8;;14.8;14;;;;;;
79466;SPS30;68933;49.726;9.226;2023-10-19T07:00:56;14.8;;14.8;14;;;;;;
79466;SPS30;68933;49.726;9.226;2023-10-19T07:03:09;22.6;;22.6;21.5;;;;;;
79466;SPS30;68933;49.726;9.226;2023-10-19T07:05:22;22.6;;22.6;21.5;;;;;;
79466;SPS30;68933;49.726;9.226;2023-10-19T07:07:35;17.9;;17.9;17.1;;;;;;
79466;SPS30;68933;49.726;9.226;2023-10-19T07:09:48;17.9;;17.9;17.1;;;;;;
79466;SPS30;68933;49.726;9.226;2023-10-19T07:12:01;17.2;;17.2;16.4;;;;;;
79466;SPS30;68933;49.726;9.226;2023-10-19T07:14:14;17.2;;17.2;16.4;;;;;;
79466;SPS30;68933;49.726;9.226;2023-10-19T07:16:27;17.5;;17.5;16.7;;;;;;
79466;SPS30;68933;49.726;9.226;2023-10-19T07:18:40;17.5;;17.5;16.7;;;;;;
79466;SPS30;68933;49.726;9.226;2023-10-19T07:20:53;17.5;;17.5;16.7;;;;;;
79466;SPS30;68933;49.726;9.226;2023-10-19T07:23:06;17.2;;16.9;15.9;;;;;;
79466;SPS30;68933;49.726;9.226;2023-10-19T07:25:19;17.2;;16.9;15.9;;;;;;
79466;SPS30;68933;49.726;9.226;2023-10-19T07:27:32;17.2;;17.1;16.3;;;;;;
79466;SPS30;68933;49.726;9.226;2023-10-19T07:29:45;17.2;;17.1;16.3;;;;;;
79466;SPS30;68933;49.726;9.226;2023-10-19T07:31:58;17.2;;17.1;16.3;;;;;;
79466;SPS30;68933;49.726;9.226;2023-10-19T07:34:11;14.9;;14.8;14.1;;;;;;
79466;SPS30;68933;49.726;9.226;2023-10-19T07:36:24;14.9;;14.8;14.1;;;;;;
79466;SPS30;68933;49.726;9.226;2023-10-19T07:38:37;14.7;;14.7;14;;;;;;
79466;SPS30;68933;49.726;9.226;2023-10-19T07:40:50;14.7;;14.7;14;;;;;;
79466;SPS30;68933;49.726;9.226;2023-10-19T07:43:03;14.7;;14.7;14;;;;;;
79466;SPS30;68933;49.726;9.226;2023-10-19T07:45:16;17.3;;17.3;16.4;;;;;;
79466;SPS30;68933;49.726;9.226;2023-10-19T07:47:29;17.3;;17.3;16.4;;;;;;
79466;SPS30;68933;49.726;9.226;2023-10-19T07:49:42;18.3;;18.3;17.4;;;;;;
79466;SPS30;68933;49.726;9.226;2023-10-19T07:51:55;18.3;;18.3;17.4;;;;;;
79466;SPS30;68933;49.726;9.226;2023-10-19T07:54:08;25.8;;25.7;24.4;;;;;;
79466;SPS30;68933;49.726;9.226;2023-10-19T07:56:21;25.8;;25.7;24.4;;;;;;
79466;SPS30;68933;49.726;9.226;2023-10-19T07:58:34;25.8;;25.7;24.4;;;;;;
79466;SPS30;68933;49.726;9.226;2023-10-19T08:00:47;18.5;;18.5;17.7;;;;;;
79466;SPS30;68933;49.726;9.226;2023-10-19T08:03:00;18.5;;18.5;17.7;;;;;;
79466;SPS30;68933;49.726;9.226;2023-10-19T08:05:13;18.9;;18.7;17.6;;;;;;
79466;SPS30;68933;49.726;9.226;2023-10-19T08:07:26;18.9;;18.7;17.6;;;;;;
79466;SPS30;68933;49.726;9.226;2023-10-19T08:09:39;18.9;;18.7;17.6;;;;;;
79466;SPS30;68933;49.726;9.226;2023-10-19T08:11:52;19.4;;19.4;18.5;;;;;;
79466;SPS30;68933;49.726;9.226;2023-10-19T08:14:05;19.4;;19.4;18.5;;;;;;
79466;SPS30;68933;49.726;9.226;2023-10-19T08:16:18;17.4;;17.4;16.6;;;;;;
79466;SPS30;68933;49.726;9.226;2023-10-19T08:18:31;17.4;;17.4;16.6;;;;;;
79466;SPS30;68933;49.726;9.226;2023-10-19T08:20:44;16.2;;16.2;15.5;;;;;;
79466;SPS30;68933;49.726;9.226;2023-10-19T08:22:57;16.2;;16.2;15.5;;;;;;
79466;SPS30;68933;49.726;9.226;2023-10-19T08:25:10;16.2;;16.2;15.5;;;;;;
79466;SPS30;68933;49.726;9.226;2023-10-19T08:27:23;16.7;;16.4;15.4;;;;;;
79466;SPS30;68933;49.726;9.226;2023-10-19T08:29:36;16.7;;16.4;15.4;;;;;;
79466;SPS30;68933;49.726;9.226;2023-10-19T08:31:49;15.7;;15.6;14.8;;;;;;
79466;SPS30;68933;49.726;9.226;2023-10-19T08:34:02;15.7;;15.6;14.8;;;;;;
79466;SPS30;68933;49.726;9.226;2023-10-19T08:36:16;15.3;;15;14.1;;;;;;
79466;SPS30;68933;49.726;9.226;2023-10-19T08:38:28;15.3;;15;14.1;;;;;;
79466;SPS30;68933;49.726;9.226;2023-10-19T08:40:41;15.3;;15;14.1;;;;;;
79466;SPS30;68933;49.726;9.226;2023-10-19T08:42:54;13.7;;13.6;12.8;;;;;;
79466;SPS30;68933;49.726;9.226;2023-10-19T08:45:07;13.7;;13.6;12.8;;;;;;
79466;SPS30;68933;49.726;9.226;2023-10-19T08:47:20;13.9;;13.7;12.9;;;;;;
79466;SPS30;68933;49.726;9.226;2023-10-19T08:49:33;13.9;;13.7;12.9;;;;;;
79466;SPS30;68933;49.726;9.226;2023-10-19T08:51:46;14.9;;14.8;14.1;;;;;;
79466;SPS30;68933;49.726;9.226;2023-10-19T08:53:59;14.9;;14.8;14.1;;;;;;
79466;SPS30;68933;49.726;9.226;2023-10-19T08:56:12;14.9;;14.8;14.1;;;;;;
79466;SPS30;68933;49.726;9.226;2023-10-19T08:58:25;15.2;;15.2;14.5;;;;;;
79466;SPS30;68933;49.726;9.226;2023-10-19T09:00:45;15.2;;15.2;14.5;;;;;;
79466;SPS30;68933;49.726;9.226;2023-10-19T09:02:51;15.8;;15.7;14.8;;;;;;
79466;SPS30;68933;49.726;9.226;2023-10-19T09:05:07;15.8;;15.7;14.8;;;;;;
79466;SPS30;68933;49.726;9.226;2023-10-19T09:07:17;15.2;;15.1;14.4;;;;;;
79466;SPS30;68933;49.726;9.226;2023-10-19T09:09:30;15.2;;15.1;14.4;;;;;;
79466;SPS30;68933;49.726;9.226;2023-10-19T09:11:43;16.6;;16.6;15.8;;;;;;
79466;SPS30;68933;49.726;9.226;2023-10-19T09:13:56;16.6;;16.6;15.8;;;;;;
79466;SPS30;68933;49.726;9.226;2023-10-19T09:16:09;16.6;;16.6;15.8;;;;;;
79466;SPS30;68933;49.726;9.226;2023-10-19T09:18:22;15.7;;15.6;14.8;;;;;;
79466;SPS30;68933;49.726;9.226;2023-10-19T09:20:35;15.7;;15.6;14.8;;;;;;
79466;SPS30;68933;49.726;9.226;2023-10-19T09:22:48;17.8;;17.7;16.7;;;;;;
79466;SPS30;68933;49.726;9.226;2023-10-19T09:25:01;17.8;;17.7;16.7;;;;;;
79466;SPS30;68933;49.726;9.226;2023-10-19T09:27:16;15.8;;15.7;15;;;;;;
79466;SPS30;68933;49.726;9.226;2023-10-19T09:29:27;15.8;;15.7;15;;;;;;
79466;SPS30;68933;49.726;9.226;2023-10-19T09:31:40;15.8;;15.7;15;;;;;;
79466;SPS30;68933;49.726;9.226;2023-10-19T09:33:53;14.5;;14.4;13.6;;;;;;
79466;SPS30;68933;49.726;9.226;2023-10-19T09:36:06;14.5;;14.4;13.6;;;;;;
79466;SPS30;68933;49.726;9.226;2023-10-19T09:38:19;88.2;;87.1;82.2;;;;;;
79466;SPS30;68933;49.726;9.226;2023-10-19T09:40:32;88.2;;87.1;82.2;;;;;;
79466;SPS30;68933;49.726;9.226;2023-10-19T09:42:45;25.4;;25.4;24.3;;;;;;
79466;SPS30;68933;49.726;9.226;2023-10-19T09:44:59;25.4;;25.4;24.3;;;;;;
79466;SPS30;68933;49.726;9.226;2023-10-19T09:47:11;15.1;;15.1;14.4;;;;;;
79466;SPS30;68933;49.726;9.226;2023-10-19T09:49:24;15.1;;15.1;14.4;;;;;;
79466;SPS30;68933;49.726;9.226;2023-10-19T09:51:37;12.9;;12.8;12.2;;;;;;
79466;SPS30;68933;49.726;9.226;2023-10-19T09:53:51;12.9;;12.8;12.2;;;;;;
79466;SPS30;68933;49.726;9.226;2023-10-19T09:56:03;12.6;;12.5;11.9;;;;;;
79466;SPS30;68933;49.726;9.226;2023-10-19T09:58:16;12.6;;12.5;11.9;;;;;;
79466;SPS30;68933;49.726;9.226;2023-10-19T10:00:29;12.6;;12.5;11.9;;;;;;
79466;SPS30;68933;49.726;9.226;2023-10-19T10:02:42;12.1;;12.1;11.5;;;;;;
79466;SPS30;68933;49.726;9.226;2023-10-19T10:04:55;12.1;;12.1;11.5;;;;;;
79466;SPS30;68933;49.726;9.226;2023-10-19T10:07:08;13.4;;13.3;12.6;;;;;;
79466;SPS30;68933;49.726;9.226;2023-10-19T10:09:21;13.4;;13.3;12.6;;;;;;
79466;SPS30;68933;49.726;9.226;2023-10-19T10:11:34;12.3;;12.3;11.7;;;;;;
79466;SPS30;68933;49.726;9.226;2023-10-19T10:13:47;12.3;;12.3;11.7;;;;;;
79466;SPS30;68933;49.726;9.226;2023-10-19T10:16:00;12.3;;12.3;11.7;;;;;;
79466;SPS30;68933;49.726;9.226;2023-10-19T10:18:13;11.4;;11.4;10.9;;;;;;
79466;SPS30;68933;49.726;9.226;2023-10-19T10:20:29;11.4;;11.4;10.9;;;;;;
79466;SPS30;68933;49.726;9.226;2023-10-19T10:22:39;13.3;;13;12.2;;;;;;
79466;SPS30;68933;49.726;9.226;2023-10-19T10:24:54;13.3;;13;12.2;;;;;;
79466;SPS30;68933;49.726;9.226;2023-10-19T10:27:05;13.1;;12.9;12.2;;;;;;
79466;SPS30;68933;49.726;9.226;2023-10-19T10:29:21;13.1;;12.9;12.2;;;;;;
79466;SPS30;68933;49.726;9.226;2023-10-19T10:31:31;13.1;;12.9;12.2;;;;;;
79466;SPS30;68933;49.726;9.226;2023-10-19T10:33:44;11.5;;11.5;10.9;;;;;;
79466;SPS30;68933;49.726;9.226;2023-10-19T10:35:57;11.5;;11.5;10.9;;;;;;
79466;SPS30;68933;49.726;9.226;2023-10-19T10:38:10;11.4;;11.4;10.9;;;;;;
79466;SPS30;68933;49.726;9.226;2023-10-19T10:40:23;11.4;;11.4;10.9;;;;;;
79466;SPS30;68933;49.726;9.226;2023-10-19T10:42:36;11.4;;11.4;10.9;;;;;;
79466;SPS30;68933;49.726;9.226;2023-10-19T10:44:49;10.4;;10.3;9.9;;;;;;
79466;SPS30;68933;49.726;9.226;2023-10-19T10:47:02;10.4;;10.3;9.9;;;;;;
79466;SPS30;68933;49.726;9.226;2023-10-19T10:49:15;10.6;;10.6;10.1;;;;;;
79466;SPS30;68933;49.726;9.226;2023-10-19T10:51:28;10.6;;10.6;10.1;;;;;;
79466;SPS30;68933;49.726;9.226;2023-10-19T10:53:41;9.9;;9.9;9.5;;;;;;
79466;SPS30;68933;49.726;9.226;2023-10-19T10:55:54;9.9;;9.9;9.5;;;;;;
79466;SPS30;68933;49.726;9.226;2023-10-19T10:58:07;9.9;;9.9;9.5;;;;;;
79466;SPS30;68933;49.726;9.226;2023-10-19T11:00:20;12.6;;12.6;12;;;;;;
79466;SPS30;68933;49.726;9.226;2023-10-19T11:02:33;12.6;;12.6;12;;;;;;
79466;SPS30;68933;49.726;9.226;2023-10-19T11:04:46;10.6;;10.6;10.1;;;;;;
79466;SPS30;68933;49.726;9.226;2023-10-19T11:06:59;10.6;;10.6;10.1;;;;;;
79466;SPS30;68933;49.726;9.226;2023-10-19T11:09:12;10.4;;10.4;9.9;;;;;;
79466;SPS30;68933;49.726;9.226;2023-10-19T11:11:25;10.4;;10.4;9.9;;;;;;
79466;SPS30;68933;49.726;9.226;2023-10-19T11:13:38;10.4;;10.4;9.9;;;;;;
79466;SPS30;68933;49.726;9.226;2023-10-19T11:15:51;10.6;;10.5;10;;;;;;
79466;SPS30;68933;49.726;9.226;2023-10-19T11:18:04;10.6;;10.5;10;;;;;;
79466;SPS30;68933;49.726;9.226;2023-10-19T11:20:24;11.5;;11.5;10.9;;;;;;
79466;SPS30;68933;49.726;9.226;2023-10-19T11:22:30;11.5;;11.5;10.9;;;;;;
79466;SPS30;68933;49.726;9.226;2023-10-19T11:24:43;11.5;;11.5;10.9;;;;;;
79466;SPS30;68933;49.726;9.226;2023-10-19T11:26:56;11.8;;11.8;11.2;;;;;;
79466;SPS30;68933;49.726;9.226;2023-10-19T11:29:09;11.8;;11.8;11.2;;;;;;
79466;SPS30;68933;49.726;9.226;2023-10-19T11:31:22;11.5;;11.5;10.9;;;;;;
79466;SPS30;68933;49.726;9.226;2023-10-19T11:33:35;11.5;;11.5;10.9;;;;;;
79466;SPS30;68933;49.726;9.226;2023-10-19T11:35:48;10.6;;10.6;10.1;;;;;;
79466;SPS30;68933;49.726;9.226;2023-10-19T11:38:01;10.6;;10.6;10.1;;;;;;
79466;SPS30;68933;49.726;9.226;2023-10-19T11:40:14;10.2;;10.1;9.7;;;;;;
79466;SPS30;68933;49.726;9.226;2023-10-19T11:42:27;10.2;;10.1;9.7;;;;;;
79466;SPS30;68933;49.726;9.226;2023-10-19T11:44:40;10.2;;10.1;9.7;;;;;;
79466;SPS30;68933;49.726;9.226;2023-10-19T11:46:53;10.8;;10.8;10.3;;;;;;
79466;SPS30;68933;49.726;9.226;2023-10-19T11:49:06;10.8;;10.8;10.3;;;;;;
79466;SPS30;68933;49.726;9.226;2023-10-19T11:51:19;10.8;;10.8;10.3;;;;;;
79466;SPS30;68933;49.726;9.226;2023-10-19T11:53:32;10.8;;10.8;10.3;;;;;;
79466;SPS30;68933;49.726;9.226;2023-10-19T11:55:45;11.4;;11.4;10.8;;;;;;
79466;SPS30;68933;49.726;9.226;2023-10-19T11:57:58;11.4;;11.4;10.8;;;;;;
79466;SPS30;68933;49.726;9.226;2023-10-19T12:00:11;14.8;;14.8;14.1;;;;;;
79466;SPS30;68933;49.726;9.226;2023-10-19T12:02:24;14.8;;14.8;14.1;;;;;;
79466;SPS30;68933;49.726;9.226;2023-10-19T12:04:37;14.8;;14.8;14.1;;;;;;
79466;SPS30;68933;49.726;9.226;2023-10-19T12:06:50;13.2;;13.2;12.6;;;;;;
79466;SPS30;68933;49.726;9.226;2023-10-19T12:09:03;13.2;;13.2;12.6;;;;;;
79466;SPS30;68933;49.726;9.226;2023-10-19T12:11:16;12.6;;12.6;12;;;;;;
79466;SPS30;68933;49.726;9.226;2023-10-19T12:13:29;12.6;;12.6;12;;;;;;
79466;SPS30;68933;49.726;9.226;2023-10-19T12:15:42;11.9;;11.7;11;;;;;;
79466;SPS30;68933;49.726;9.226;2023-10-19T12:17:55;11.9;;11.7;11;;;;;;
79466;SPS30;68933;49.726;9.226;2023-10-19T12:20:08;11.9;;11.7;11;;;;;;